Time;durP1;ratioP1;P1;durP2;ratioP2;P2;SDS_P1;SDS_P2;PMS_P1;PMS_P2;Temp;Humidity;BMP_temperature;BMP_pressure;BME280_temperature;BME280_humidity;BME280_pressure;Samples;Min_cycle;Max_cycle;Signal;HPM_P1;HPM_P2
2023/07/28 00:01:24;;;;;;;;;;;;;;;;;;5063850;28;5507;-62
2023/07/28 00:03:49;;;;;;;;;;;;;;;;;;5068597;28;4967;-63
2023/07/28 00:06:15;;;;;;;;;;;;;;;;;;5065563;28;5043;-64
2023/07/28 00:08:40;;;;;;;;;;;;;;;;;;5076278;28;3287;-63
2023/07/28 00:11:10;;;;;;;;;;;;;;;;;;5070499;28;5259;-63
2023/07/28 00:13:35;;;;;;;;;;;;;;;;;;5069573;28;4417;-63
2023/07/28 00:16:00;;;;;;;;;;;;;;;;;;5070336;28;5075;-63
2023/07/28 00:18:25;;;;;;;;;;;;;;;;;;5070078;28;4991;-63
2023/07/28 00:20:50;;;;;;;;;;;;;;;;;;5069304;28;5017;-63
2023/07/28 00:23:16;;;;;;;;;;;;;;;;;;5074810;28;3197;-62
2023/07/28 00:25:41;;;;;;;;;;;;;;;;;;5047344;28;5512;-63
2023/07/28 00:28:06;;;;;;;;;;;;;;;;;;5069022;28;5072;-63
2023/07/28 00:30:31;;;;;;;;;;;;;;;;;;5069447;28;5036;-63
2023/07/28 00:32:57;;;;;;;;;;;;;;;;;;5069639;28;5034;-63
2023/07/28 00:35:22;;;;;;;;;;;;;;;;;;5051566;28;2577;-63
2023/07/28 00:37:47;;;;;;;;;;;;;;;;;;5069695;28;5070;-64
2023/07/28 00:40:12;;;;;;;;;;;;;;;;;;5069503;28;5233;-60
2023/07/28 00:42:38;;;;;;;;;;;;;;;;;;5045132;28;5101;-63
2023/07/28 00:45:03;;;;;;;;;;;;;;;;;;5068945;28;4855;-64
2023/07/28 00:47:28;;;;;;;;;;;;;;;;;;5069564;28;1975;-63
2023/07/28 00:49:53;;;;;;;;;;;;;;;;;;5069086;28;5175;-64
2023/07/28 00:52:19;;;;;;;;;;;;;;;;;;5051343;28;4991;-64
2023/07/28 00:54:44;;;;;;;;;;;;;;;;;;5069128;28;4953;-63
2023/07/28 00:57:09;;;;;;;;;;;;;;;;;;5064919;28;5158;-64
2023/07/28 00:59:35;;;;;;;;;;;;;;;;;;5069471;28;1329;-62
2023/07/28 01:02:00;;;;;;;;;;;;;;;;;;5051202;28;5274;-63
2023/07/28 01:04:25;;;;;;;;;;;;;;;;;;5072013;28;5069;-62
2023/07/28 01:06:57;;;;;;;;;;;;;;;;;;5068858;28;5033;-64
2023/07/28 01:09:23;;;;;;;;;;;;;;;;;;5069242;28;4426;-64
2023/07/28 01:11:54;;;;;;;;;;;;;;;;;;5033586;28;4892;-64
2023/07/28 01:14:20;;;;;;;;;;;;;;;;;;5067520;28;1101;-64
2023/07/28 01:16:45;;;;;;;;;;;;;;;;;;5068705;28;5101;-64
2023/07/28 01:19:10;;;;;;;;;;;;;;;;;;5068398;28;5104;-62
2023/07/28 01:21:35;;;;;;;;;;;;;;;;;;5068712;28;5132;-63
2023/07/28 01:24:03;;;;;;;;;;;;;;;;;;5045144;28;5109;-63
2023/07/28 01:26:35;;;;;;;;;;;;;;;;;;5050098;28;1973;-64
2023/07/28 01:29:00;;;;;;;;;;;;;;;;;;5049433;28;4815;-64
2023/07/28 01:31:26;;;;;;;;;;;;;;;;;;5053047;28;5154;-64
2023/07/28 01:33:51;;;;;;;;;;;;;;;;;;5071262;28;5092;-65
2023/07/28 01:36:18;;;;;;;;;;;;;;;;;;5068295;28;5085;-63
2023/07/28 01:38:43;;;;;;;;;;;;;;;;;;5049875;28;5148;-63
2023/07/28 01:41:08;;;;;;;;;;;;;;;;;;5069001;28;1330;-63
2023/07/28 01:43:33;;;;;;;;;;;;;;;;;;5066944;28;5055;-63
2023/07/28 01:45:59;;;;;;;;;;;;;;;;;;5070892;28;4687;-64
2023/07/28 01:48:24;;;;;;;;;;;;;;;;;;5067944;28;4974;-65
2023/07/28 01:50:49;;;;;;;;;;;;;;;;;;5068066;28;4891;-64
2023/07/28 01:53:14;;;;;;;;;;;;;;;;;;5068546;28;1345;-65
2023/07/28 01:55:39;;;;;;;;;;;;;;;;;;5066552;28;5020;-64
2023/07/28 01:58:05;;;;;;;;;;;;;;;;;;5065256;28;5046;-63
2023/07/28 02:00:30;;;;;;;;;;;;;;;;;;5067842;28;5376;-63
2023/07/28 02:02:56;;;;;;;;;;;;;;;;;;5049669;28;5113;-63
2023/07/28 02:05:21;;;;;;;;;;;;;;;;;;5068503;28;1183;-64
2023/07/28 02:07:46;;;;;;;;;;;;;;;;;;5067795;28;4848;-63
2023/07/28 02:10:12;;;;;;;;;;;;;;;;;;5068089;28;5043;-62
2023/07/28 02:12:37;;;;;;;;;;;;;;;;;;5067954;28;5026;-63
2023/07/28 02:15:03;;;;;;;;;;;;;;;;;;5067627;28;5131;-64
2023/07/28 02:17:28;;;;;;;;;;;;;;;;;;5068112;28;1302;-64
2023/07/28 02:19:53;;;;;;;;;;;;;;;;;;5066999;28;4839;-62
2023/07/28 02:22:19;;;;;;;;;;;;;;;;;;5066687;28;4840;-64
2023/07/28 02:24:44;;;;;;;;;;;;;;;;;;5066753;28;4649;-63
2023/07/28 02:27:09;;;;;;;;;;;;;;;;;;5065186;28;5071;-63
2023/07/28 02:29:34;;;;;;;;;;;;;;;;;;5067705;28;1351;-64
2023/07/28 02:32:00;;;;;;;;;;;;;;;;;;5067024;28;4532;-63
2023/07/28 02:34:25;;;;;;;;;;;;;;;;;;5066991;28;4450;-64
2023/07/28 02:36:50;;;;;;;;;;;;;;;;;;5067480;28;5062;-64
2023/07/28 02:39:15;;;;;;;;;;;;;;;;;;5067669;28;5115;-64
2023/07/28 02:41:42;;;;;;;;;;;;;;;;;;5067855;28;4447;-61
2023/07/28 02:44:07;;;;;;;;;;;;;;;;;;5062464;28;1259;-64
2023/07/28 02:46:32;;;;;;;;;;;;;;;;;;5067162;28;4399;-63
2023/07/28 02:48:58;;;;;;;;;;;;;;;;;;5067107;28;4865;-64
2023/07/28 02:51:23;;;;;;;;;;;;;;;;;;5066912;28;5046;-64
2023/07/28 02:53:48;;;;;;;;;;;;;;;;;;5067570;28;4961;-64
2023/07/28 02:56:13;;;;;;;;;;;;;;;;;;5048159;28;1500;-62
2023/07/28 02:58:39;;;;;;;;;;;;;;;;;;5049349;28;5103;-64
2023/07/28 03:01:04;;;;;;;;;;;;;;;;;;5063747;28;6511;-63
2023/07/28 03:03:29;;;;;;;;;;;;;;;;;;5066888;28;5138;-63
2023/07/28 03:05:54;;;;;;;;;;;;;;;;;;5067692;28;4991;-63
2023/07/28 03:08:20;;;;;;;;;;;;;;;;;;5067756;28;1934;-63
2023/07/28 03:10:45;;;;;;;;;;;;;;;;;;5066896;28;4987;-63
2023/07/28 03:13:10;;;;;;;;;;;;;;;;;;5066891;28;4828;-63
2023/07/28 03:15:35;;;;;;;;;;;;;;;;;;5066906;28;4845;-64
2023/07/28 03:18:01;;;;;;;;;;;;;;;;;;5066916;28;4935;-64
2023/07/28 03:20:26;;;;;;;;;;;;;;;;;;5066999;28;2011;-64
2023/07/28 03:22:51;;;;;;;;;;;;;;;;;;5067140;28;5259;-64
2023/07/28 03:25:17;;;;;;;;;;;;;;;;;;5070098;28;5039;-65
2023/07/28 03:27:42;;;;;;;;;;;;;;;;;;5065933;28;5134;-65
2023/07/28 03:30:10;;;;;;;;;;;;;;;;;;5066614;28;4979;-64
2023/07/28 03:32:35;;;;;;;;;;;;;;;;;;5067283;28;1176;-62
2023/07/28 03:35:01;;;;;;;;;;;;;;;;;;5067031;28;4887;-64
2023/07/28 03:37:26;;;;;;;;;;;;;;;;;;5067445;28;5368;-64
2023/07/28 03:39:51;;;;;;;;;;;;;;;;;;5071775;28;4869;-64
2023/07/28 03:42:16;;;;;;;;;;;;;;;;;;5067683;28;5074;-60
2023/07/28 03:44:42;;;;;;;;;;;;;;;;;;5069532;28;5046;-65
2023/07/28 03:47:07;;;;;;;;;;;;;;;;;;5070214;28;3225;-65
2023/07/28 03:49:33;;;;;;;;;;;;;;;;;;5069457;28;5027;-63
2023/07/28 03:51:58;;;;;;;;;;;;;;;;;;5065705;28;5232;-64
2023/07/28 03:54:23;;;;;;;;;;;;;;;;;;5072280;28;5002;-63
2023/07/28 03:56:48;;;;;;;;;;;;;;;;;;5043488;28;4696;-64
2023/07/28 03:59:14;;;;;;;;;;;;;;;;;;5070093;28;3178;-62
2023/07/28 04:01:39;;;;;;;;;;;;;;;;;;5064529;28;4931;-64
2023/07/28 04:04:05;;;;;;;;;;;;;;;;;;5045465;28;4529;-62
2023/07/28 04:06:43;;;;;;;;;;;;;;;;;;5071835;28;5282;-63
2023/07/28 04:09:08;;;;;;;;;;;;;;;;;;5069115;28;5034;-63
2023/07/28 04:11:33;;;;;;;;;;;;;;;;;;5069078;28;3241;-63
2023/07/28 04:13:59;;;;;;;;;;;;;;;;;;5065453;28;5005;-63
2023/07/28 04:16:24;;;;;;;;;;;;;;;;;;5048522;28;5121;-65
2023/07/28 04:18:49;;;;;;;;;;;;;;;;;;5066935;28;5211;-62
2023/07/28 04:21:14;;;;;;;;;;;;;;;;;;5051344;28;4500;-62
2023/07/28 04:23:40;;;;;;;;;;;;;;;;;;5068617;28;3059;-63
2023/07/28 04:26:06;;;;;;;;;;;;;;;;;;5066201;28;4919;-63
2023/07/28 04:28:31;;;;;;;;;;;;;;;;;;5045336;28;5117;-62
2023/07/28 04:30:56;;;;;;;;;;;;;;;;;;5068744;28;4446;-62
2023/07/28 04:33:21;;;;;;;;;;;;;;;;;;5069692;28;5277;-64
2023/07/28 04:35:47;;;;;;;;;;;;;;;;;;5075494;28;5045;-60
2023/07/28 04:38:12;;;;;;;;;;;;;;;;;;5069021;28;3329;-62
2023/07/28 04:40:37;;;;;;;;;;;;;;;;;;5046798;28;5041;-62
2023/07/28 04:43:02;;;;;;;;;;;;;;;;;;5061192;28;4839;-63
2023/07/28 04:45:28;;;;;;;;;;;;;;;;;;5062369;28;5148;-61
2023/07/28 04:47:53;;;;;;;;;;;;;;;;;;5066512;28;5284;-58
2023/07/28 04:50:18;;;;;;;;;;;;;;;;;;5066666;28;4985;-64
2023/07/28 04:52:44;;;;;;;;;;;;;;;;;;5068407;28;5183;-60
2023/07/28 04:55:09;;;;;;;;;;;;;;;;;;5065614;28;5119;-63
2023/07/28 04:57:34;;;;;;;;;;;;;;;;;;5061954;28;4475;-62
2023/07/28 04:59:59;;;;;;;;;;;;;;;;;;5065411;28;5056;-63
2023/07/28 05:02:25;;;;;;;;;;;;;;;;;;5071628;28;3284;-63
2023/07/28 05:04:50;;;;;;;;;;;;;;;;;;5071618;28;4946;-63
2023/07/28 05:07:15;;;;;;;;;;;;;;;;;;5066391;28;5024;-63
2023/07/28 05:09:40;;;;;;;;;;;;;;;;;;5067820;28;5216;-63
2023/07/28 05:12:06;;;;;;;;;;;;;;;;;;5067684;28;5040;-64
2023/07/28 05:14:31;;;;;;;;;;;;;;;;;;5068213;28;2111;-62
2023/07/28 05:16:56;;;;;;;;;;;;;;;;;;5068030;28;4836;-63
2023/07/28 05:19:22;;;;;;;;;;;;;;;;;;5068486;28;4437;-63
2023/07/28 05:21:47;;;;;;;;;;;;;;;;;;5068398;28;5097;-62
2023/07/28 05:24:12;;;;;;;;;;;;;;;;;;5067217;28;4940;-63
2023/07/28 05:26:37;;;;;;;;;;;;;;;;;;5067682;28;1910;-63
2023/07/28 05:29:03;;;;;;;;;;;;;;;;;;5067926;28;4797;-63
2023/07/28 05:31:28;;;;;;;;;;;;;;;;;;5070157;28;4842;-64
2023/07/28 05:33:53;;;;;;;;;;;;;;;;;;5068430;28;4631;-63
2023/07/28 05:36:19;;;;;;;;;;;;;;;;;;5050363;28;5100;-63
2023/07/28 05:38:44;;;;;;;;;;;;;;;;;;5049778;28;4653;-62
2023/07/28 05:41:09;;;;;;;;;;;;;;;;;;5069157;28;1097;-63
2023/07/28 05:43:34;;;;;;;;;;;;;;;;;;5066084;28;5078;-63
2023/07/28 05:46:00;;;;;;;;;;;;;;;;;;5072645;28;5061;-63
2023/07/28 05:48:25;;;;;;;;;;;;;;;;;;5049531;28;4525;-63
2023/07/28 05:50:53;;;;;;;;;;;;;;;;;;5067864;28;4960;-63
2023/07/28 05:53:19;;;;;;;;;;;;;;;;;;5068453;28;1152;-64
2023/07/28 05:55:45;;;;;;;;;;;;;;;;;;5048419;28;5033;-63
2023/07/28 05:58:10;;;;;;;;;;;;;;;;;;5064702;28;4967;-62
2023/07/28 06:00:36;;;;;;;;;;;;;;;;;;5071782;28;5060;-63
2023/07/28 06:03:02;;;;;;;;;;;;;;;;;;5045981;28;5077;-63
2023/07/28 06:05:27;;;;;;;;;;;;;;;;;;5065096;28;1163;-64
2023/07/28 06:07:52;;;;;;;;;;;;;;;;;;5067686;28;4970;-64
2023/07/28 06:10:17;;;;;;;;;;;;;;;;;;5049606;28;5167;-64
2023/07/28 06:12:43;;;;;;;;;;;;;;;;;;5070564;28;5049;-64
2023/07/28 06:15:08;;;;;;;;;;;;;;;;;;5071381;28;5346;-63
2023/07/28 06:17:33;;;;;;;;;;;;;;;;;;5067628;28;1293;-63
2023/07/28 06:19:59;;;;;;;;;;;;;;;;;;5066957;28;5112;-63
2023/07/28 06:22:24;;;;;;;;;;;;;;;;;;5066028;28;5009;-62
2023/07/28 06:24:50;;;;;;;;;;;;;;;;;;5067675;28;5156;-64
2023/07/28 06:27:15;;;;;;;;;;;;;;;;;;5067524;28;4914;-64
2023/07/28 06:29:40;;;;;;;;;;;;;;;;;;5065048;28;3405;-62
2023/07/28 06:32:06;;;;;;;;;;;;;;;;;;5065468;28;5026;-63
2023/07/28 06:34:31;;;;;;;;;;;;;;;;;;5061681;28;4650;-63
2023/07/28 06:36:57;;;;;;;;;;;;;;;;;;5061773;28;4840;-63
2023/07/28 06:39:23;;;;;;;;;;;;;;;;;;5067199;28;5087;-63
2023/07/28 06:41:48;;;;;;;;;;;;;;;;;;5067112;28;5063;-63
2023/07/28 06:44:13;;;;;;;;;;;;;;;;;;5063197;28;1539;-64
2023/07/28 06:46:38;;;;;;;;;;;;;;;;;;5045737;28;4955;-63
2023/07/28 06:49:03;;;;;;;;;;;;;;;;;;5067319;28;4456;-63
2023/07/28 06:51:29;;;;;;;;;;;;;;;;;;5059752;28;4887;-61
2023/07/28 06:53:54;;;;;;;;;;;;;;;;;;5067435;28;5136;-63
2023/07/28 06:56:19;;;;;;;;;;;;;;;;;;5064495;28;1520;-62
2023/07/28 06:58:45;;;;;;;;;;;;;;;;;;5067077;28;4971;-63
2023/07/28 07:01:10;;;;;;;;;;;;;;;;;;5066865;28;5029;-62
2023/07/28 07:03:36;;;;;;;;;;;;;;;;;;5048780;28;5095;-63
2023/07/28 07:06:01;;;;;;;;;;;;;;;;;;5066646;28;4998;-62
2023/07/28 07:08:27;;;;;;;;;;;;;;;;;;5060695;28;3241;-58
2023/07/28 07:10:52;;;;;;;;;;;;;;;;;;5061988;28;5010;-58
2023/07/28 07:13:17;;;;;;;;;;;;;;;;;;5068428;28;5037;-58
2023/07/28 07:15:43;;;;;;;;;;;;;;;;;;5071189;28;4930;-58
2023/07/28 07:18:08;;;;;;;;;;;;;;;;;;5071004;28;4849;-58
2023/07/28 07:20:37;;;;;;;;;;;;;;;;;;5051925;28;3421;-58
2023/07/28 07:23:02;;;;;;;;;;;;;;;;;;5063021;28;5065;-58
2023/07/28 07:25:27;;;;;;;;;;;;;;;;;;5074498;28;5006;-58
2023/07/28 07:27:52;;;;;;;;;;;;;;;;;;5069847;28;5079;-58
2023/07/28 07:30:18;;;;;;;;;;;;;;;;;;5070267;28;4978;-58
2023/07/28 07:32:43;;;;;;;;;;;;;;;;;;5077753;28;4830;-58
2023/07/28 07:35:08;;;;;;;;;;;;;;;;;;5071080;28;1077;-58
2023/07/28 07:37:33;;;;;;;;;;;;;;;;;;5076788;28;5064;-58
2023/07/28 07:40:00;;;;;;;;;;;;;;;;;;5074364;28;4985;-58
2023/07/28 07:42:26;;;;;;;;;;;;;;;;;;5057505;28;5033;-57
2023/07/28 07:44:51;;;;;;;;;;;;;;;;;;5075207;28;4994;-57
2023/07/28 07:47:16;;;;;;;;;;;;;;;;;;5070736;28;1922;-58
2023/07/28 07:49:42;;;;;;;;;;;;;;;;;;5075225;28;4931;-58
2023/07/28 07:52:09;;;;;;;;;;;;;;;;;;5059539;28;4893;-58
2023/07/28 07:54:34;;;;;;;;;;;;;;;;;;5070999;28;5310;-58
2023/07/28 07:56:59;;;;;;;;;;;;;;;;;;5070445;28;5094;-58
2023/07/28 07:59:27;;;;;;;;;;;;;;;;;;5070725;28;1263;-59
2023/07/28 08:01:53;;;;;;;;;;;;;;;;;;5071421;28;4817;-57
2023/07/28 08:04:18;;;;;;;;;;;;;;;;;;5069899;28;5114;-59
2023/07/28 08:06:43;;;;;;;;;;;;;;;;;;5071251;28;4488;-58
2023/07/28 08:09:09;;;;;;;;;;;;;;;;;;5070510;28;4450;-58
2023/07/28 08:11:35;;;;;;;;;;;;;;;;;;5078392;28;1178;-57
2023/07/28 08:14:00;;;;;;;;;;;;;;;;;;5069451;28;4683;-58
2023/07/28 08:16:25;;;;;;;;;;;;;;;;;;5052717;28;4894;-58
2023/07/28 08:18:50;;;;;;;;;;;;;;;;;;5071186;28;4548;-58
2023/07/28 08:21:16;;;;;;;;;;;;;;;;;;5070165;28;5049;-58
2023/07/28 08:23:41;;;;;;;;;;;;;;;;;;5067310;28;4871;-56
2023/07/28 08:26:06;;;;;;;;;;;;;;;;;;5069568;28;1563;-58
2023/07/28 08:28:32;;;;;;;;;;;;;;;;;;5069290;28;4962;-58
2023/07/28 08:30:58;;;;;;;;;;;;;;;;;;5069182;28;4967;-58
2023/07/28 08:33:24;;;;;;;;;;;;;;;;;;5070599;28;4653;-58
2023/07/28 08:35:49;;;;;;;;;;;;;;;;;;5065076;28;4877;-58
2023/07/28 08:38:14;;;;;;;;;;;;;;;;;;5074571;28;1160;-58
2023/07/28 08:40:39;;;;;;;;;;;;;;;;;;5073573;28;5063;-58
2023/07/28 08:43:05;;;;;;;;;;;;;;;;;;5050983;28;5023;-58
2023/07/28 08:45:30;;;;;;;;;;;;;;;;;;5068703;28;5087;-58
2023/07/28 08:47:56;;;;;;;;;;;;;;;;;;5064453;28;4533;-57
2023/07/28 08:50:21;;;;;;;;;;;;;;;;;;5068183;28;4792;-57
2023/07/28 08:52:46;;;;;;;;;;;;;;;;;;5045936;28;4858;-57
2023/07/28 08:55:13;;;;;;;;;;;;;;;;;;5068512;28;4938;-59
2023/07/28 08:57:38;;;;;;;;;;;;;;;;;;5067068;28;4849;-58
2023/07/28 09:00:12;;;;;;;;;;;;;;;;;;5065810;28;4894;-59
2023/07/28 09:02:37;;;;;;;;;;;;;;;;;;5065167;28;1281;-58
2023/07/28 09:05:04;;;;;;;;;;;;;;;;;;5066287;28;4401;-58
2023/07/28 09:07:36;;;;;;;;;;;;;;;;;;5067396;28;5129;-58
2023/07/28 09:10:02;;;;;;;;;;;;;;;;;;5066582;28;5038;-57
2023/07/28 09:12:27;;;;;;;;;;;;;;;;;;5033544;28;5185;-58
2023/07/28 09:14:56;;;;;;;;;;;;;;;;;;5065345;28;4995;-58
2023/07/28 09:17:21;;;;;;;;;;;;;;;;;;5066332;28;3408;-58
2023/07/28 09:20:05;;;;;;;;;;;;;;;;;;5062050;28;4669;-57
2023/07/28 09:22:31;;;;;;;;;;;;;;;;;;5065461;28;4843;-57
2023/07/28 09:24:56;;;;;;;;;;;;;;;;;;5060786;28;4487;-58
2023/07/28 09:27:22;;;;;;;;;;;;;;;;;;5058114;28;5300;-58
2023/07/28 09:29:48;;;;;;;;;;;;;;;;;;5064831;28;4971;-57
2023/07/28 09:32:13;;;;;;;;;;;;;;;;;;5065625;28;3316;-58
2023/07/28 09:34:38;;;;;;;;;;;;;;;;;;5065795;28;4560;-58
2023/07/28 09:37:04;;;;;;;;;;;;;;;;;;5064072;28;4927;-57
2023/07/28 09:39:31;;;;;;;;;;;;;;;;;;5064217;28;5238;-58
2023/07/28 09:41:58;;;;;;;;;;;;;;;;;;5048941;28;4685;-58
2023/07/28 09:44:23;;;;;;;;;;;;;;;;;;5027391;28;2188;-57
2023/07/28 09:46:50;;;;;;;;;;;;;;;;;;5065817;28;5022;-57
2023/07/28 09:49:15;;;;;;;;;;;;;;;;;;5062070;28;5111;-57
2023/07/28 09:51:40;;;;;;;;;;;;;;;;;;5065220;28;5052;-57
2023/07/28 09:54:07;;;;;;;;;;;;;;;;;;5049831;28;4530;-57
2023/07/28 09:56:32;;;;;;;;;;;;;;;;;;5046367;28;3439;-57
2023/07/28 09:58:57;;;;;;;;;;;;;;;;;;5063675;28;4582;-57
2023/07/28 10:01:23;;;;;;;;;;;;;;;;;;5064529;28;4665;-58
2023/07/28 10:03:48;;;;;;;;;;;;;;;;;;5061158;28;5232;-57
2023/07/28 10:06:13;;;;;;;;;;;;;;;;;;5063931;28;5199;-57
2023/07/28 10:08:38;;;;;;;;;;;;;;;;;;5062280;28;2940;-58
2023/07/28 10:11:04;;;;;;;;;;;;;;;;;;5065670;28;5051;-59
2023/07/28 10:13:31;;;;;;;;;;;;;;;;;;5066441;28;5328;-59
2023/07/28 10:15:56;;;;;;;;;;;;;;;;;;5048667;28;4881;-59
2023/07/28 10:18:22;;;;;;;;;;;;;;;;;;5046279;28;4995;-59
2023/07/28 10:20:49;;;;;;;;;;;;;;;;;;5065853;28;5337;-59
2023/07/28 10:23:14;;;;;;;;;;;;;;;;;;5064952;28;3330;-60
2023/07/28 10:25:40;;;;;;;;;;;;;;;;;;5065388;28;5176;-58
2023/07/28 10:28:06;;;;;;;;;;;;;;;;;;5058863;28;5267;-60
2023/07/28 10:30:36;;;;;;;;;;;;;;;;;;5061943;28;5217;-60
2023/07/28 10:33:01;;;;;;;;;;;;;;;;;;5061726;28;5141;-60
2023/07/28 10:35:27;;;;;;;;;;;;;;;;;;5066671;28;1085;-59
2023/07/28 10:37:58;;;;;;;;;;;;;;;;;;5066571;28;5069;-59
2023/07/28 10:40:24;;;;;;;;;;;;;;;;;;5062388;28;4552;-59
2023/07/28 10:42:49;;;;;;;;;;;;;;;;;;5060339;28;4968;-58
2023/07/28 10:45:15;;;;;;;;;;;;;;;;;;5048325;28;4544;-58
2023/07/28 10:47:43;;;;;;;;;;;;;;;;;;5065822;28;2350;-58
2023/07/28 10:50:09;;;;;;;;;;;;;;;;;;5048453;28;4958;-59
2023/07/28 10:52:34;;;;;;;;;;;;;;;;;;5066345;28;4614;-58
2023/07/28 10:54:59;;;;;;;;;;;;;;;;;;5066528;28;4945;-58
2023/07/28 10:57:26;;;;;;;;;;;;;;;;;;5044843;28;5043;-59
2023/07/28 10:59:51;;;;;;;;;;;;;;;;;;5064853;28;5020;-58
2023/07/28 11:02:16;;;;;;;;;;;;;;;;;;5066967;28;1216;-58
2023/07/28 11:04:46;;;;;;;;;;;;;;;;;;5065462;28;5099;-59
2023/07/28 11:07:11;;;;;;;;;;;;;;;;;;5066339;28;5100;-58
2023/07/28 11:09:36;;;;;;;;;;;;;;;;;;5046454;28;4873;-58
2023/07/28 11:12:01;;;;;;;;;;;;;;;;;;5065928;28;4457;-58
2023/07/28 11:14:26;;;;;;;;;;;;;;;;;;5066088;28;1297;-59
2023/07/28 11:16:52;;;;;;;;;;;;;;;;;;5064934;28;4983;-59
2023/07/28 11:19:24;;;;;;;;;;;;;;;;;;5030593;28;4864;-59
2023/07/28 11:21:51;;;;;;;;;;;;;;;;;;5063886;28;5002;-58
2023/07/28 11:24:18;;;;;;;;;;;;;;;;;;5060124;28;5195;-59
2023/07/28 11:26:43;;;;;;;;;;;;;;;;;;5062113;28;5217;-58
2023/07/28 11:29:08;;;;;;;;;;;;;;;;;;5046435;28;1944;-58
2023/07/28 11:31:33;;;;;;;;;;;;;;;;;;5046672;28;5043;-58
2023/07/28 11:33:59;;;;;;;;;;;;;;;;;;5047965;28;4827;-59
2023/07/28 11:36:25;;;;;;;;;;;;;;;;;;5065428;28;5102;-59
2023/07/28 11:38:50;;;;;;;;;;;;;;;;;;5065120;28;4862;-58
2023/07/28 11:41:16;;;;;;;;;;;;;;;;;;5048087;28;1145;-58
2023/07/28 11:43:46;;;;;;;;;;;;;;;;;;5045543;28;5094;-59
2023/07/28 11:46:31;;;;;;;;;;;;;;;;;;5066244;28;4598;-59
2023/07/28 11:49:06;;;;;;;;;;;;;;;;;;5062230;28;4963;-58
2023/07/28 11:51:31;;;;;;;;;;;;;;;;;;5065174;28;5239;-57
2023/07/28 11:53:57;;;;;;;;;;;;;;;;;;5063227;28;5195;-58
2023/07/28 11:56:22;;;;;;;;;;;;;;;;;;5045665;28;1279;-58
2023/07/28 11:58:50;;;;;;;;;;;;;;;;;;5065344;28;4978;-58
2023/07/28 12:01:16;;;;;;;;;;;;;;;;;;5070742;28;5117;-58
2023/07/28 12:03:41;;;;;;;;;;;;;;;;;;5069486;28;5027;-58
2023/07/28 12:06:09;;;;;;;;;;;;;;;;;;5068186;28;4587;-58
2023/07/28 12:08:36;;;;;;;;;;;;;;;;;;5069432;28;1969;-58
2023/07/28 12:11:01;;;;;;;;;;;;;;;;;;5068215;28;4826;-58
2023/07/28 12:13:26;;;;;;;;;;;;;;;;;;5069307;28;5201;-58
2023/07/28 12:15:52;;;;;;;;;;;;;;;;;;5075921;28;4450;-58
2023/07/28 12:18:19;;;;;;;;;;;;;;;;;;5069180;28;5135;-59
2023/07/28 12:20:47;;;;;;;;;;;;;;;;;;5069387;28;4573;-58
2023/07/28 12:23:16;;;;;;;;;;;;;;;;;;5068492;28;1069;-58
2023/07/28 12:25:41;;;;;;;;;;;;;;;;;;5049224;28;5571;-58
2023/07/28 12:28:07;;;;;;;;;;;;;;;;;;5065398;28;4913;-58
2023/07/28 12:30:32;;;;;;;;;;;;;;;;;;5068793;28;5433;-57
2023/07/28 12:32:58;;;;;;;;;;;;;;;;;;5046320;28;5024;-58
2023/07/28 12:35:23;;;;;;;;;;;;;;;;;;5068958;28;1267;-57
2023/07/28 12:37:49;;;;;;;;;;;;;;;;;;5049972;28;4735;-57
2023/07/28 12:40:14;;;;;;;;;;;;;;;;;;5068594;28;5094;-58
2023/07/28 12:42:40;;;;;;;;;;;;;;;;;;5061434;28;5058;-58
2023/07/28 12:45:06;;;;;;;;;;;;;;;;;;5068389;28;5097;-57
2023/07/28 12:47:31;;;;;;;;;;;;;;;;;;5068747;28;1901;-57
2023/07/28 12:49:56;;;;;;;;;;;;;;;;;;5068110;28;5338;-58
2023/07/28 12:52:22;;;;;;;;;;;;;;;;;;5068292;28;5031;-57
2023/07/28 12:54:47;;;;;;;;;;;;;;;;;;5068530;28;5203;-58
2023/07/28 12:57:13;;;;;;;;;;;;;;;;;;5066746;28;4994;-58
2023/07/28 12:59:38;;;;;;;;;;;;;;;;;;5068973;28;1084;-58
2023/07/28 13:02:03;;;;;;;;;;;;;;;;;;5066529;28;4372;-58
2023/07/28 13:04:28;;;;;;;;;;;;;;;;;;5067314;28;5016;-57
2023/07/28 13:06:54;;;;;;;;;;;;;;;;;;5067356;28;5097;-58
2023/07/28 13:09:19;;;;;;;;;;;;;;;;;;5067908;28;5190;-58
2023/07/28 13:11:45;;;;;;;;;;;;;;;;;;5061866;28;5167;-58
2023/07/28 13:14:10;;;;;;;;;;;;;;;;;;5068270;28;1148;-57
2023/07/28 13:16:37;;;;;;;;;;;;;;;;;;5063210;28;4431;-58
2023/07/28 13:19:03;;;;;;;;;;;;;;;;;;5068189;28;5051;-58
2023/07/28 13:21:28;;;;;;;;;;;;;;;;;;5044853;28;4480;-58
2023/07/28 13:23:53;;;;;;;;;;;;;;;;;;5048547;28;5129;-58
2023/07/28 13:26:18;;;;;;;;;;;;;;;;;;5048989;28;1420;-58
2023/07/28 13:28:46;;;;;;;;;;;;;;;;;;5067219;28;5096;-57
2023/07/28 13:31:12;;;;;;;;;;;;;;;;;;5067574;28;5060;-58
2023/07/28 13:33:37;;;;;;;;;;;;;;;;;;5064247;28;4442;-57
2023/07/28 13:36:06;;;;;;;;;;;;;;;;;;5066962;28;4460;-58
2023/07/28 13:38:32;;;;;;;;;;;;;;;;;;5068417;28;1962;-60
2023/07/28 13:40:57;;;;;;;;;;;;;;;;;;5066816;28;4929;-60
2023/07/28 13:43:22;;;;;;;;;;;;;;;;;;5065892;28;5032;-58
2023/07/28 13:45:47;;;;;;;;;;;;;;;;;;5066764;28;4768;-58
2023/07/28 13:48:13;;;;;;;;;;;;;;;;;;5066971;28;5135;-58
2023/07/28 13:50:38;;;;;;;;;;;;;;;;;;5067269;28;4855;-59
2023/07/28 13:53:03;;;;;;;;;;;;;;;;;;5071389;28;4548;-60
2023/07/28 13:55:28;;;;;;;;;;;;;;;;;;5046458;28;5019;-57
2023/07/28 13:57:54;;;;;;;;;;;;;;;;;;5062157;28;4994;-61
2023/07/28 14:00:19;;;;;;;;;;;;;;;;;;5060624;28;5014;-60
2023/07/28 14:02:44;;;;;;;;;;;;;;;;;;5045762;28;4945;-62
2023/07/28 14:05:09;;;;;;;;;;;;;;;;;;5061811;28;3429;-62
2023/07/28 14:07:35;;;;;;;;;;;;;;;;;;5068732;28;5192;-58
2023/07/28 14:10:00;;;;;;;;;;;;;;;;;;5078405;28;4921;-59
2023/07/28 14:12:26;;;;;;;;;;;;;;;;;;5067634;28;5591;-58
2023/07/28 14:14:51;;;;;;;;;;;;;;;;;;5060683;28;4575;-58
2023/07/28 14:17:16;;;;;;;;;;;;;;;;;;5061788;28;1251;-58
2023/07/28 14:19:41;;;;;;;;;;;;;;;;;;5065950;28;5094;-61
2023/07/28 14:22:07;;;;;;;;;;;;;;;;;;5058663;28;5066;-58
2023/07/28 14:24:32;;;;;;;;;;;;;;;;;;5062292;28;5064;-60
2023/07/28 14:26:57;;;;;;;;;;;;;;;;;;5044617;28;5133;-62
2023/07/28 14:29:22;;;;;;;;;;;;;;;;;;5067624;28;3434;-61
2023/07/28 14:31:48;;;;;;;;;;;;;;;;;;5068391;28;5508;-62
2023/07/28 14:34:13;;;;;;;;;;;;;;;;;;5070504;28;4671;-61
2023/07/28 14:36:38;;;;;;;;;;;;;;;;;;5043098;28;5011;-61
2023/07/28 14:39:04;;;;;;;;;;;;;;;;;;5063022;28;4655;-62
2023/07/28 14:41:29;;;;;;;;;;;;;;;;;;5059013;28;3798;-61
2023/07/28 14:43:55;;;;;;;;;;;;;;;;;;5063902;28;4991;-71
2023/07/28 14:46:22;;;;;;;;;;;;;;;;;;5066472;28;5151;-68
2023/07/28 14:48:47;;;;;;;;;;;;;;;;;;5062287;28;5114;-73
2023/07/28 14:51:13;;;;;;;;;;;;;;;;;;5059530;28;5038;-68
2023/07/28 14:53:39;;;;;;;;;;;;;;;;;;5044587;28;3891;-58
2023/07/28 14:56:05;;;;;;;;;;;;;;;;;;5059012;28;4927;-58
2023/07/28 14:58:30;;;;;;;;;;;;;;;;;;5058403;28;5008;-58
2023/07/28 15:00:56;;;;;;;;;;;;;;;;;;5061809;28;5089;-58
2023/07/28 15:03:21;;;;;;;;;;;;;;;;;;5062141;28;4905;-59
2023/07/28 15:05:47;;;;;;;;;;;;;;;;;;5060447;28;5078;-59
2023/07/28 15:08:13;;;;;;;;;;;;;;;;;;5026263;28;3811;-59
2023/07/28 15:10:38;;;;;;;;;;;;;;;;;;5065097;28;5131;-59
2023/07/28 15:13:03;;;;;;;;;;;;;;;;;;5047680;28;4524;-59
2023/07/28 15:15:29;;;;;;;;;;;;;;;;;;5064557;28;4647;-58
2023/07/28 15:17:54;;;;;;;;;;;;;;;;;;5065098;28;4750;-59
2023/07/28 15:20:21;;;;;;;;;;;;;;;;;;5043764;28;1132;-59
2023/07/28 15:22:46;;;;;;;;;;;;;;;;;;5062579;28;4931;-59
2023/07/28 15:25:12;;;;;;;;;;;;;;;;;;5046202;28;5508;-59
2023/07/28 15:27:37;;;;;;;;;;;;;;;;;;5059172;28;5090;-59
2023/07/28 15:30:03;;;;;;;;;;;;;;;;;;5065802;28;4913;-58
2023/07/28 15:32:28;;;;;;;;;;;;;;;;;;5064181;28;2089;-59
2023/07/28 15:34:53;;;;;;;;;;;;;;;;;;5063917;28;5018;-59
2023/07/28 15:37:18;;;;;;;;;;;;;;;;;;5069394;28;5017;-59
2023/07/28 15:39:44;;;;;;;;;;;;;;;;;;5070383;28;5271;-59
2023/07/28 15:42:09;;;;;;;;;;;;;;;;;;5069483;28;5121;-59
2023/07/28 15:44:34;;;;;;;;;;;;;;;;;;5065532;28;1797;-59
2023/07/28 15:46:59;;;;;;;;;;;;;;;;;;5052024;28;5140;-59
2023/07/28 15:49:25;;;;;;;;;;;;;;;;;;5070136;28;5024;-59
2023/07/28 15:51:50;;;;;;;;;;;;;;;;;;5054363;28;5318;-59
2023/07/28 15:54:15;;;;;;;;;;;;;;;;;;5069746;28;5098;-59
2023/07/28 15:56:40;;;;;;;;;;;;;;;;;;5069415;28;1413;-59
2023/07/28 15:59:06;;;;;;;;;;;;;;;;;;5069732;28;4910;-59
2023/07/28 16:01:31;;;;;;;;;;;;;;;;;;5069608;28;5037;-59
2023/07/28 16:03:56;;;;;;;;;;;;;;;;;;5069809;28;4902;-59
2023/07/28 16:06:22;;;;;;;;;;;;;;;;;;5069895;28;5047;-59
2023/07/28 16:08:47;;;;;;;;;;;;;;;;;;5069857;28;5003;-59
2023/07/28 16:11:12;;;;;;;;;;;;;;;;;;5070444;28;1254;-59
2023/07/28 16:13:37;;;;;;;;;;;;;;;;;;5051638;28;5081;-59
2023/07/28 16:16:03;;;;;;;;;;;;;;;;;;5069908;28;5101;-59
2023/07/28 16:18:28;;;;;;;;;;;;;;;;;;5051494;28;4533;-59
2023/07/28 16:20:53;;;;;;;;;;;;;;;;;;5069343;28;4575;-59
2023/07/28 16:23:19;;;;;;;;;;;;;;;;;;5068802;28;1194;-59
2023/07/28 16:25:47;;;;;;;;;;;;;;;;;;5069679;28;4412;-59
2023/07/28 16:28:12;;;;;;;;;;;;;;;;;;5068401;28;4710;-59
2023/07/28 16:30:40;;;;;;;;;;;;;;;;;;5069489;28;4996;-59
2023/07/28 16:33:05;;;;;;;;;;;;;;;;;;5066464;28;5032;-59
2023/07/28 16:35:30;;;;;;;;;;;;;;;;;;5064470;28;1141;-59
2023/07/28 16:37:55;;;;;;;;;;;;;;;;;;5050689;28;5028;-59
2023/07/28 16:40:21;;;;;;;;;;;;;;;;;;5069472;28;4985;-59
2023/07/28 16:42:46;;;;;;;;;;;;;;;;;;5067945;28;4874;-59
2023/07/28 16:45:11;;;;;;;;;;;;;;;;;;5068201;28;4850;-59
2023/07/28 16:47:36;;;;;;;;;;;;;;;;;;5046921;28;1914;-59
2023/07/28 16:50:02;;;;;;;;;;;;;;;;;;5069086;28;4940;-59
2023/07/28 16:52:27;;;;;;;;;;;;;;;;;;5050028;28;4994;-59